createdAt,value
2022-09-07T00:00:09.448Z,73.93
2022-09-07T00:03:06.999Z,75.04
2022-09-07T00:06:08.932Z,76.17
2022-09-07T00:09:06.707Z,76.09
2022-09-07T00:12:04.080Z,76.08
2022-09-07T00:15:04.159Z,75.62
2022-09-07T00:18:01.829Z,75.43
2022-09-07T00:21:00.406Z,75.57
2022-09-07T00:23:57.967Z,75.61
2022-09-07T00:26:55.660Z,76.29
2022-09-07T00:29:52.629Z,76.71
2022-09-07T00:32:49.526Z,76.43
2022-09-07T00:35:46.986Z,76.55
2022-09-07T00:38:44.192Z,76.75
2022-09-07T00:41:41.894Z,76.40
2022-09-07T00:44:44.505Z,76.43
2022-09-07T00:47:43.871Z,76.00
2022-09-07T00:50:54.142Z,76.34
2022-09-07T00:53:58.139Z,76.48
2022-09-07T00:56:55.817Z,75.97
2022-09-07T00:59:53.097Z,76.08
2022-09-07T01:02:51.152Z,75.96
2022-09-07T01:06:10.275Z,75.79
2022-09-07T01:09:13.402Z,76.49
2022-09-07T01:12:10.696Z,77.16
2022-09-07T01:15:07.835Z,77.31
2022-09-07T01:18:24.890Z,77.09
2022-09-07T01:21:26.528Z,75.56
2022-09-07T01:24:38.892Z,76.34
2022-09-07T01:27:59.945Z,77.15
2022-09-07T01:31:07.722Z,76.62
2022-09-07T01:34:16.735Z,77.03
2022-09-07T01:37:25.068Z,79.07
2022-09-07T01:40:53.872Z,78.38
2022-09-07T01:44:04.169Z,77.22
2022-09-07T01:47:02.988Z,76.35
2022-09-07T01:50:10.289Z,78.48
2022-09-07T01:53:19.765Z,82.56
2022-09-07T01:56:24.935Z,85.92
2022-09-07T01:59:39.534Z,87.03
2022-09-07T02:02:49.530Z,87.13
2022-09-07T02:05:52.751Z,87.06
2022-09-07T02:09:12.333Z,88.08
2022-09-07T02:12:16.874Z,92.01
2022-09-07T02:15:15.804Z,91.57
2022-09-07T02:18:14.298Z,90.03
2022-09-07T02:21:12.859Z,88.30
2022-09-07T02:24:23.346Z,91.06
2022-09-07T02:27:51.913Z,92.15
2022-09-07T02:30:48.876Z,94.55
2022-09-07T02:33:46.029Z,92.48
2022-09-07T02:36:48.078Z,89.96
2022-09-07T02:39:44.916Z,92.16
2022-09-07T02:42:41.794Z,94.69
2022-09-07T02:45:44.668Z,95.06
2022-09-07T02:49:03.926Z,95.24
2022-09-07T02:52:22.379Z,95.86
2022-09-07T02:55:27.089Z,93.14
2022-09-07T02:58:32.607Z,94.58
2022-09-07T03:01:47.681Z,93.99
2022-09-07T03:04:54.603Z,95.05
2022-09-07T03:07:59.559Z,96.10
2022-09-07T03:10:56.792Z,95.53
2022-09-07T03:14:16.059Z,95.22
2022-09-07T03:17:13.022Z,98.17
2022-09-07T03:20:09.902Z,100.00
2022-09-07T03:23:06.471Z,100.00
2022-09-07T03:26:04.433Z,100.00
2022-09-07T03:29:02.068Z,100.00
2022-09-07T03:31:58.895Z,100.00
2022-09-07T03:34:56.044Z,100.00
2022-09-07T03:37:53.070Z,100.00
2022-09-07T03:41:00.933Z,100.00
2022-09-07T03:43:57.703Z,100.00
2022-09-07T03:46:54.957Z,100.00
2022-09-07T03:49:51.850Z,100.00
2022-09-07T03:52:48.671Z,100.00
2022-09-07T03:55:56.421Z,100.00
2022-09-07T03:58:54.738Z,100.00
2022-09-07T04:01:52.099Z,100.00
2022-09-07T04:04:49.102Z,100.00
2022-09-07T04:07:45.654Z,100.00
2022-09-07T04:10:43.927Z,100.00
2022-09-07T04:13:42.141Z,100.00
2022-09-07T04:16:39.399Z,97.43
2022-09-07T04:19:36.973Z,96.40
2022-09-07T04:22:33.778Z,97.43
2022-09-07T04:25:30.937Z,96.76
2022-09-07T04:28:30.630Z,100.00
2022-09-07T04:31:28.035Z,100.00
2022-09-07T04:34:24.922Z,98.68
2022-09-07T04:37:21.762Z,99.64
2022-09-07T04:40:18.628Z,96.84
2022-09-07T04:43:16.342Z,100.00
2022-09-07T04:46:13.921Z,100.00
2022-09-07T04:49:11.203Z,100.00
2022-09-07T04:52:08.413Z,100.00
2022-09-07T04:55:06.625Z,100.00
2022-09-07T04:58:04.133Z,100.00
2022-09-07T05:01:05.023Z,100.00
2022-09-07T05:04:04.167Z,100.00
2022-09-07T05:07:01.006Z,100.00
2022-09-07T05:09:58.143Z,100.00
2022-09-07T05:12:55.169Z,100.00
2022-09-07T05:15:51.922Z,100.00
2022-09-07T05:18:52.617Z,100.00
2022-09-07T05:21:50.161Z,100.00
2022-09-07T05:24:47.755Z,100.00
2022-09-07T05:27:47.938Z,100.00
2022-09-07T05:37:20.484Z,99.44
2022-09-07T05:40:18.553Z,100.00
2022-09-07T05:43:16.414Z,97.78
2022-09-07T05:46:14.566Z,98.51
2022-09-07T05:49:12.008Z,100.00
2022-09-07T05:52:08.900Z,100.00
2022-09-07T05:55:26.310Z,100.00
2022-09-07T05:58:23.002Z,100.00
2022-09-07T06:01:19.940Z,100.00
2022-09-07T06:04:16.853Z,100.00
2022-09-07T06:07:22.157Z,100.00
2022-09-07T06:13:37.499Z,100.00
2022-09-07T06:16:35.211Z,100.00
2022-09-07T06:19:31.948Z,100.00
2022-09-07T06:22:31.246Z,100.00
2022-09-07T06:25:29.196Z,100.00
2022-09-07T06:28:48.894Z,100.00
2022-09-07T06:35:04.581Z,100.00
2022-09-07T06:38:05.096Z,100.00
2022-09-07T06:44:30.455Z,100.00
2022-09-07T06:47:28.135Z,100.00
2022-09-07T06:50:27.838Z,100.00
2022-09-07T06:56:30.122Z,100.00
2022-09-07T06:59:26.921Z,100.00
2022-09-07T07:02:23.787Z,100.00
2022-09-07T07:05:21.365Z,100.00
2022-09-07T07:08:19.082Z,100.00
2022-09-07T07:11:16.229Z,100.00
2022-09-07T07:14:17.337Z,100.00
2022-09-07T07:17:13.855Z,100.00
2022-09-07T07:20:11.238Z,100.00
2022-09-07T07:23:08.268Z,100.00
2022-09-07T07:26:10.497Z,100.00
2022-09-07T07:29:08.457Z,100.00
2022-09-07T07:32:06.133Z,100.00
2022-09-07T07:35:02.881Z,100.00
2022-09-07T07:44:35.799Z,100.00
2022-09-07T07:47:33.187Z,100.00
2022-09-07T07:50:30.997Z,100.00
2022-09-07T07:53:44.652Z,100.00
2022-09-07T07:56:42.479Z,100.00
2022-09-07T07:59:39.315Z,100.00
2022-09-07T08:02:37.001Z,100.00
2022-09-07T08:05:37.478Z,100.00
2022-09-07T08:08:35.882Z,100.00
2022-09-07T08:11:34.360Z,100.00
2022-09-07T08:14:31.098Z,100.00
2022-09-07T08:17:28.410Z,100.00
2022-09-07T08:20:25.501Z,100.00
2022-09-07T08:23:22.885Z,100.00
2022-09-07T08:26:20.764Z,100.00
2022-09-07T08:29:18.119Z,100.00
2022-09-07T08:32:17.362Z,98.27
2022-09-07T08:35:14.353Z,98.48
2022-09-07T08:38:11.296Z,97.00
2022-09-07T08:41:36.054Z,97.01
2022-09-07T08:44:59.284Z,98.81
2022-09-07T08:47:56.624Z,96.63
2022-09-07T08:51:03.252Z,96.66
2022-09-07T08:54:00.421Z,95.57
2022-09-07T09:00:16.945Z,96.56
2022-09-07T09:03:30.018Z,92.79
2022-09-07T09:06:44.308Z,92.20
2022-09-07T09:10:18.800Z,93.14
2022-09-07T09:13:57.921Z,92.50
2022-09-07T09:17:00.010Z,91.49
2022-09-07T09:20:04.561Z,86.87
2022-09-07T09:23:05.703Z,86.67
2022-09-07T09:26:07.741Z,86.29
2022-09-07T09:29:15.639Z,85.26
2022-09-07T09:32:33.386Z,84.98
2022-09-07T09:35:35.379Z,86.20
2022-09-07T09:38:33.740Z,88.21
2022-09-07T09:41:37.244Z,89.94
2022-09-07T09:44:34.471Z,88.61
2022-09-07T09:47:32.836Z,86.90
2022-09-07T09:54:06.075Z,90.28
2022-09-07T09:57:03.889Z,87.89
2022-09-07T10:00:05.287Z,85.41
2022-09-07T10:06:32.530Z,86.25
2022-09-07T10:09:56.127Z,85.51
2022-09-07T10:12:54.267Z,85.36
2022-09-07T10:15:52.592Z,85.42
2022-09-07T10:18:57.984Z,85.59
2022-09-07T10:21:58.098Z,84.48
2022-09-07T10:24:55.230Z,84.79
2022-09-07T10:28:01.967Z,84.26
2022-09-07T10:31:30.277Z,85.80
2022-09-07T10:34:48.274Z,85.44
2022-09-07T10:38:13.132Z,87.15
2022-09-07T10:41:10.466Z,86.79
2022-09-07T10:44:11.723Z,85.70
2022-09-07T10:47:25.688Z,85.59
2022-09-07T10:50:33.398Z,85.77
2022-09-07T10:53:43.057Z,85.09
2022-09-07T10:56:51.391Z,85.93
2022-09-07T11:00:08.358Z,86.84
2022-09-07T11:03:27.122Z,86.78
2022-09-07T11:06:34.637Z,87.09
2022-09-07T11:09:36.681Z,87.65
2022-09-07T11:12:35.899Z,86.54
2022-09-07T11:15:35.673Z,86.01
2022-09-07T11:18:37.673Z,85.56
2022-09-07T11:28:43.233Z,85.32
2022-09-07T11:31:47.023Z,84.44
2022-09-07T11:34:52.537Z,83.88
2022-09-07T11:37:57.443Z,84.27
2022-09-07T11:41:14.409Z,83.93
2022-09-07T11:44:29.673Z,83.38
2022-09-07T11:47:33.921Z,82.46
2022-09-07T11:50:33.381Z,82.61
2022-09-07T11:53:32.863Z,82.82
2022-09-07T11:56:36.787Z,83.05
2022-09-07T12:00:12.605Z,82.50
2022-09-07T12:03:36.085Z,82.42
2022-09-07T12:06:41.995Z,84.13
2022-09-07T12:10:06.683Z,84.05
2022-09-07T12:13:08.313Z,83.61
2022-09-07T12:16:23.973Z,82.42
2022-09-07T12:19:25.229Z,80.75
2022-09-07T12:22:22.414Z,80.75
2022-09-07T12:25:19.498Z,81.67
2022-09-07T12:28:36.620Z,82.50
2022-09-07T12:32:52.661Z,80.45
2022-09-07T12:35:27.914Z,80.79
2022-09-07T12:38:31.602Z,81.17
2022-09-07T12:41:41.377Z,78.69
2022-09-07T12:44:38.067Z,78.17
2022-09-07T12:47:35.201Z,79.19
2022-09-07T12:50:39.397Z,78.39
2022-09-07T12:54:01.995Z,76.67
2022-09-07T13:00:23.284Z,77.32
2022-09-07T13:10:03.138Z,77.50
2022-09-07T13:13:03.200Z,76.68
2022-09-07T13:16:06.583Z,75.38
2022-09-07T13:19:05.064Z,75.81
2022-09-07T13:22:02.246Z,77.02
2022-09-07T13:25:00.689Z,73.85
2022-09-07T13:28:00.810Z,74.31
2022-09-07T13:31:25.235Z,74.17
2022-09-07T13:34:34.453Z,72.61
2022-09-07T13:38:00.693Z,75.66
2022-09-07T13:41:12.755Z,77.66
2022-09-07T13:44:26.129Z,77.55
2022-09-07T13:47:27.396Z,75.99
2022-09-07T13:50:52.495Z,75.33
2022-09-07T13:53:55.570Z,75.23
2022-09-07T13:57:25.166Z,75.98
2022-09-07T14:00:22.578Z,76.70
2022-09-07T14:03:19.708Z,75.29
2022-09-07T14:06:37.142Z,72.51
2022-09-07T14:09:34.590Z,72.58
2022-09-07T14:12:31.248Z,70.88
2022-09-07T14:15:32.451Z,71.02
2022-09-07T14:18:30.814Z,69.99
2022-09-07T14:21:27.509Z,70.35
2022-09-07T14:24:35.698Z,69.89
2022-09-07T14:27:33.187Z,69.72
2022-09-07T14:30:33.205Z,70.34
2022-09-07T14:33:30.512Z,70.44
2022-09-07T14:36:47.979Z,69.71
2022-09-07T14:39:46.984Z,70.30
2022-09-07T14:42:44.342Z,70.60
2022-09-07T14:45:41.606Z,70.41
2022-09-07T14:48:39.544Z,70.98
2022-09-07T14:51:37.021Z,71.85
2022-09-07T14:54:34.969Z,71.86
2022-09-07T14:57:32.863Z,70.78
2022-09-07T15:00:32.993Z,71.41
2022-09-07T15:03:30.610Z,70.75
2022-09-07T15:09:53.830Z,68.93
2022-09-07T15:12:58.853Z,71.06
2022-09-07T15:16:00.090Z,70.98
2022-09-07T15:19:15.500Z,71.79
2022-09-07T15:22:13.662Z,71.21
2022-09-07T15:25:11.257Z,70.36
2022-09-07T15:29:08.172Z,71.00
2022-09-07T15:31:42.502Z,71.26
2022-09-07T15:34:40.898Z,71.92
2022-09-07T15:41:21.960Z,72.38
2022-09-07T15:44:15.093Z,72.22
2022-09-07T15:50:29.500Z,71.18
2022-09-07T15:57:47.695Z,70.62
2022-09-07T16:00:01.824Z,69.94
2022-09-07T16:03:09.887Z,70.37
2022-09-07T16:06:13.566Z,69.82
2022-09-07T16:09:10.385Z,70.98
2022-09-07T16:15:27.065Z,70.22
2022-09-07T16:18:24.613Z,70.36
2022-09-07T16:21:26.269Z,70.49
2022-09-07T16:24:23.741Z,70.94
2022-09-07T16:27:20.815Z,70.26
2022-09-07T16:30:17.650Z,71.68
2022-09-07T16:33:14.393Z,71.32
2022-09-07T16:36:14.389Z,71.44
2022-09-07T16:39:11.664Z,71.36
2022-09-07T16:42:09.078Z,72.59
2022-09-07T16:48:24.880Z,75.02
2022-09-07T16:51:23.779Z,76.48
2022-09-07T16:54:21.187Z,76.66
2022-09-07T16:57:18.848Z,77.19
2022-09-07T17:00:16.529Z,76.93
2022-09-07T17:03:13.719Z,76.98
2022-09-07T17:06:12.036Z,74.96
2022-09-07T17:09:11.333Z,76.80
2022-09-07T17:12:12.387Z,77.30
2022-09-07T17:15:10.249Z,78.42
2022-09-07T17:18:07.705Z,78.48
2022-09-07T17:21:06.320Z,79.30
2022-09-07T17:24:04.584Z,79.23
2022-09-07T17:27:01.706Z,80.31
2022-09-07T17:29:58.433Z,80.77
2022-09-07T17:32:55.761Z,80.47
2022-09-07T17:35:52.593Z,79.66
2022-09-07T17:42:07.886Z,81.42
2022-09-07T17:45:05.722Z,81.65
2022-09-07T17:48:02.634Z,81.28
2022-09-07T17:51:03.921Z,80.94
2022-09-07T17:54:02.807Z,82.15
2022-09-07T17:56:59.717Z,80.55
2022-09-07T18:00:12.447Z,81.07
2022-09-07T18:03:09.653Z,82.15
2022-09-07T18:06:06.901Z,82.66
2022-09-07T18:09:06.710Z,82.33
2022-09-07T18:12:04.083Z,82.41
2022-09-07T18:15:01.594Z,83.05
2022-09-07T18:17:58.926Z,83.34
2022-09-07T18:20:55.631Z,83.59
2022-09-07T18:23:54.083Z,83.39
2022-09-07T18:26:52.897Z,83.93
2022-09-07T18:29:50.195Z,83.91
2022-09-07T18:32:47.639Z,83.39
2022-09-07T18:35:46.241Z,83.79
2022-09-07T18:38:43.820Z,85.11
2022-09-07T18:41:41.098Z,86.38
2022-09-07T18:47:55.395Z,86.16
2022-09-07T18:50:55.797Z,87.63
2022-09-07T18:53:52.589Z,88.20
2022-09-07T18:56:49.874Z,89.04
2022-09-07T18:59:47.611Z,88.46
2022-09-07T19:02:45.932Z,88.63
2022-09-07T19:05:50.001Z,89.21
2022-09-07T19:08:48.091Z,87.72
2022-09-07T19:11:46.082Z,86.20
2022-09-07T19:14:43.601Z,87.03
2022-09-07T19:17:40.980Z,88.29
2022-09-07T19:20:38.024Z,89.37
2022-09-07T19:23:36.069Z,88.70
2022-09-07T19:26:37.657Z,89.15
2022-09-07T19:29:34.816Z,89.14
2022-09-07T19:32:31.679Z,90.00
2022-09-07T19:35:29.045Z,90.04
2022-09-07T19:38:25.779Z,89.72
2022-09-07T19:41:22.827Z,90.02
2022-09-07T19:44:19.477Z,90.27
2022-09-07T19:47:16.629Z,90.44
2022-09-07T19:50:14.151Z,90.40
2022-09-07T19:53:11.726Z,91.27
2022-09-07T19:56:17.292Z,92.49
2022-09-07T19:59:14.941Z,92.62
2022-09-07T20:02:11.792Z,92.40
2022-09-07T20:05:08.809Z,91.59
2022-09-07T20:08:06.848Z,90.45
2022-09-07T20:11:05.701Z,91.11
2022-09-07T20:14:03.207Z,91.09
2022-09-07T20:17:01.414Z,90.46
2022-09-07T20:19:58.757Z,91.20
2022-09-07T20:22:56.138Z,92.06
2022-09-07T20:25:57.531Z,92.89
2022-09-07T20:29:10.715Z,93.21
2022-09-07T20:32:13.445Z,93.79
2022-09-07T20:35:10.795Z,95.34
2022-09-07T20:38:07.894Z,96.68
2022-09-07T20:41:04.732Z,96.30
2022-09-07T20:44:02.951Z,96.02
2022-09-07T20:46:59.955Z,95.91
2022-09-07T20:49:56.992Z,94.87
2022-09-07T20:52:53.779Z,93.39
2022-09-07T20:56:00.307Z,93.39
2022-09-07T20:59:01.539Z,93.78
2022-09-07T21:01:58.805Z,95.84
2022-09-07T21:04:56.186Z,94.91
2022-09-07T21:07:54.206Z,93.67
2022-09-07T21:10:51.733Z,93.14
2022-09-07T21:13:54.733Z,92.43
2022-09-07T21:16:51.960Z,93.68
2022-09-07T21:19:49.113Z,95.10
2022-09-07T21:22:45.833Z,94.86
2022-09-07T21:25:44.089Z,94.32
2022-09-07T21:28:40.835Z,92.80
2022-09-07T21:31:37.751Z,93.61
2022-09-07T21:34:34.868Z,95.72
2022-09-07T21:37:31.789Z,95.55
2022-09-07T21:40:29.223Z,95.24
2022-09-07T21:43:27.120Z,93.95
2022-09-07T21:46:24.462Z,93.43
2022-09-07T21:49:22.140Z,92.66
2022-09-07T21:52:20.143Z,93.01
2022-09-07T21:55:17.021Z,94.61
2022-09-07T21:58:13.573Z,95.99
2022-09-07T22:01:17.290Z,97.23
2022-09-07T22:04:14.799Z,95.62
2022-09-07T22:07:11.941Z,92.89
2022-09-07T22:10:09.638Z,91.82
2022-09-07T22:13:07.182Z,90.91
2022-09-07T22:16:04.382Z,92.27
2022-09-07T22:19:01.845Z,92.26
2022-09-07T22:21:58.861Z,93.65
2022-09-07T22:24:56.001Z,93.82
2022-09-07T22:27:53.345Z,94.59
2022-09-07T22:30:50.946Z,94.42
2022-09-07T22:33:48.698Z,93.84
2022-09-07T22:36:45.896Z,93.37
2022-09-07T22:39:42.916Z,93.03
2022-09-07T22:42:39.874Z,92.58
2022-09-07T22:45:36.895Z,92.88
2022-09-07T22:48:34.044Z,93.55
2022-09-07T22:51:30.804Z,94.27
2022-09-07T22:54:27.599Z,93.98
2022-09-07T22:57:25.136Z,93.60
2022-09-07T23:00:21.978Z,94.14
2022-09-07T23:03:18.855Z,93.81
2022-09-07T23:06:29.681Z,93.26
2022-09-07T23:09:27.188Z,93.46
2022-09-07T23:12:24.998Z,94.29
2022-09-07T23:15:22.150Z,94.01
2022-09-07T23:18:20.492Z,95.01
2022-09-07T23:21:17.621Z,95.07
2022-09-07T23:24:16.597Z,97.02
2022-09-07T23:27:14.109Z,97.59
2022-09-07T23:30:11.870Z,97.14
2022-09-07T23:33:09.415Z,98.50
2022-09-07T23:36:08.075Z,98.97
2022-09-07T23:39:05.230Z,99.20
2022-09-07T23:42:01.962Z,97.70
2022-09-07T23:44:59.179Z,96.94
2022-09-07T23:47:56.313Z,96.49
2022-09-07T23:50:54.191Z,96.53
2022-09-07T23:53:51.168Z,97.01
2022-09-07T23:56:48.052Z,99.01
2022-09-07T23:59:45.145Z,100.00
